Terminal Aerodrome Forecast
Issued by NWS Tulsa, OK

Home | Current Version | Previous Version | Text Only | Print | Product List | Glossary On
Versions: 1 2 3 4 5 6 7 8 9 10 11 12 13 14
000
FTUS44 KTSA 301100
TAFTUL
TAF
KTUL 301120Z 3012/3112 33010KT P6SM SCT007 OVC015
      TEMPO 3012/3015 BKN007
     FM301700 34010KT P6SM BKN025
     FM302200 36005KT P6SM BKN050
     FM310900 34003KT P6SM SCT250=

USA.gov is the U.S. government's official web portal to all federal, state and local government web resources and services.